createdAt,value
2022-10-07T00:03:34.258Z,10.68
2022-10-07T00:08:38.448Z,10.64
2022-10-07T00:13:44.178Z,10.68
2022-10-07T00:18:48.172Z,10.65
2022-10-07T00:23:52.251Z,10.68
2022-10-07T00:28:56.660Z,10.63
2022-10-07T00:34:00.365Z,10.55
2022-10-07T00:39:05.478Z,10.54
2022-10-07T00:44:38.363Z,10.55
2022-10-07T00:49:46.647Z,10.42
2022-10-07T00:54:53.000Z,10.35
2022-10-07T00:59:58.240Z,10.34
2022-10-07T01:05:04.347Z,10.31
2022-10-07T01:10:09.202Z,10.35
2022-10-07T01:15:25.101Z,10.43
2022-10-07T01:20:35.794Z,10.41
2022-10-07T01:25:59.498Z,10.47
2022-10-07T01:31:07.437Z,10.52
2022-10-07T01:36:15.401Z,10.55
2022-10-07T01:41:21.273Z,10.60
2022-10-07T01:46:27.406Z,10.53
2022-10-07T01:51:37.715Z,10.51
2022-10-07T01:56:55.066Z,10.49
2022-10-07T02:02:06.307Z,10.54
2022-10-07T02:07:23.184Z,10.48
2022-10-07T02:12:35.527Z,10.51
2022-10-07T02:17:44.757Z,10.59
2022-10-07T02:22:50.158Z,10.65
2022-10-07T02:27:55.932Z,10.57
2022-10-07T02:33:04.292Z,10.40
2022-10-07T02:38:10.313Z,10.43
2022-10-07T02:43:18.413Z,10.31
2022-10-07T02:48:24.544Z,10.42
2022-10-07T02:53:32.152Z,10.43
2022-10-07T02:58:37.113Z,10.40
2022-10-07T03:03:42.335Z,10.38
2022-10-07T03:08:47.880Z,10.40
2022-10-07T03:13:51.265Z,10.46
2022-10-07T03:18:56.622Z,10.70
2022-10-07T03:24:04.861Z,10.76
2022-10-07T03:29:13.882Z,10.66
2022-10-07T03:34:18.708Z,10.53
2022-10-07T03:39:24.119Z,10.40
2022-10-07T03:44:27.027Z,10.41
2022-10-07T03:49:33.101Z,10.42
2022-10-07T03:54:36.034Z,10.45
2022-10-07T03:59:40.825Z,10.58
2022-10-07T04:04:45.547Z,10.45
2022-10-07T04:09:48.577Z,10.24
2022-10-07T04:14:51.921Z,10.02
2022-10-07T04:19:56.231Z,9.91
2022-10-07T04:25:21.894Z,9.88
2022-10-07T04:30:28.070Z,9.90
2022-10-07T04:35:32.455Z,9.99
2022-10-07T04:40:40.021Z,10.14
2022-10-07T04:45:43.299Z,10.23
2022-10-07T04:50:48.375Z,10.29
2022-10-07T04:55:52.479Z,10.23
2022-10-07T05:00:59.222Z,10.22
2022-10-07T05:06:06.016Z,10.06
2022-10-07T05:11:12.621Z,10.06
2022-10-07T05:16:24.984Z,10.03
2022-10-07T05:21:29.487Z,9.99
2022-10-07T05:26:33.018Z,9.92
2022-10-07T05:31:38.237Z,9.84
2022-10-07T05:36:44.332Z,9.83
2022-10-07T05:41:49.364Z,9.87
2022-10-07T05:46:55.631Z,10.05
2022-10-07T05:52:00.290Z,10.21
2022-10-07T05:57:03.198Z,10.26
2022-10-07T06:02:06.356Z,10.11
2022-10-07T06:07:11.164Z,10.15
2022-10-07T06:12:32.160Z,10.36
2022-10-07T06:17:42.658Z,10.63
2022-10-07T06:22:48.300Z,11.15
2022-10-07T06:27:54.656Z,12.41
2022-10-07T06:32:59.155Z,14.33
2022-10-07T06:38:03.410Z,13.46
2022-10-07T06:43:06.798Z,13.16
2022-10-07T06:48:20.442Z,15.20
2022-10-07T06:53:24.695Z,17.07
2022-10-07T06:58:28.695Z,18.32
2022-10-07T07:03:32.091Z,19.02
2022-10-07T07:08:41.108Z,18.80
2022-10-07T07:13:45.989Z,17.27
2022-10-07T07:18:52.610Z,16.83
2022-10-07T07:23:58.870Z,15.07
2022-10-07T07:29:05.458Z,14.11
2022-10-07T07:34:15.476Z,13.21
2022-10-07T07:39:21.761Z,13.54
2022-10-07T07:44:35.064Z,13.37
2022-10-07T07:49:39.376Z,13.36
2022-10-07T07:54:46.363Z,13.48
2022-10-07T07:59:49.537Z,13.49
2022-10-07T08:04:54.854Z,13.31
2022-10-07T08:10:00.557Z,13.53
2022-10-07T08:15:03.640Z,14.35
2022-10-07T08:20:08.775Z,14.52
2022-10-07T08:25:13.336Z,15.13
2022-10-07T08:30:16.320Z,15.21
2022-10-07T08:35:19.306Z,15.25
2022-10-07T08:40:23.705Z,15.04
2022-10-07T08:45:31.850Z,14.93
2022-10-07T08:50:42.089Z,15.45
2022-10-07T08:55:50.723Z,15.46
2022-10-07T09:01:03.323Z,16.05
2022-10-07T09:06:14.155Z,16.37
2022-10-07T09:11:25.570Z,16.13
2022-10-07T09:16:33.202Z,15.65
2022-10-07T09:21:43.639Z,15.34
2022-10-07T09:26:48.363Z,15.33
2022-10-07T09:31:53.410Z,15.40
2022-10-07T09:37:14.669Z,15.50
2022-10-07T09:42:28.396Z,15.24
2022-10-07T09:47:36.150Z,15.48
2022-10-07T09:52:38.890Z,15.48
2022-10-07T09:57:43.573Z,15.60
2022-10-07T10:02:49.959Z,15.49
2022-10-07T10:07:59.286Z,15.92
2022-10-07T10:13:05.299Z,15.95
2022-10-07T10:18:29.040Z,15.73
2022-10-07T10:23:36.719Z,15.86
2022-10-07T10:28:48.945Z,16.03
2022-10-07T10:33:59.722Z,16.05
2022-10-07T10:39:05.338Z,15.86
2022-10-07T10:44:28.723Z,16.20
2022-10-07T10:49:39.197Z,16.43
2022-10-07T10:54:56.196Z,16.33
2022-10-07T11:00:08.913Z,16.41
2022-10-07T11:05:17.400Z,16.27
2022-10-07T11:10:23.021Z,16.10
2022-10-07T11:15:33.631Z,16.24
2022-10-07T11:20:42.372Z,16.30
2022-10-07T11:25:53.760Z,16.35
2022-10-07T11:31:03.312Z,16.61
2022-10-07T11:36:14.825Z,16.54
2022-10-07T11:41:25.617Z,16.92
2022-10-07T11:46:34.942Z,16.89
2022-10-07T11:51:41.502Z,16.90
2022-10-07T11:56:48.154Z,16.90
2022-10-07T12:01:53.620Z,16.75
2022-10-07T12:07:34.787Z,16.98
2022-10-07T12:12:53.699Z,16.92
2022-10-07T12:18:38.793Z,17.01
2022-10-07T12:23:48.735Z,16.77
2022-10-07T12:29:05.372Z,16.86
2022-10-07T12:34:11.752Z,17.10
2022-10-07T12:39:37.219Z,16.85
2022-10-07T12:44:45.519Z,16.71
2022-10-07T12:49:50.554Z,16.92
2022-10-07T12:54:58.442Z,17.02
2022-10-07T13:00:08.001Z,17.00
2022-10-07T13:05:49.796Z,16.99
2022-10-07T13:11:26.623Z,17.01
2022-10-07T13:16:34.515Z,17.05
2022-10-07T13:21:40.611Z,17.20
2022-10-07T13:26:46.622Z,17.15
2022-10-07T13:32:03.827Z,17.16
2022-10-07T13:37:29.615Z,16.99
2022-10-07T13:42:33.810Z,17.23
2022-10-07T13:47:36.624Z,17.55
2022-10-07T13:52:44.545Z,17.60
2022-10-07T13:57:48.879Z,17.55
2022-10-07T14:02:52.676Z,17.87
2022-10-07T14:07:58.151Z,17.70
2022-10-07T14:13:07.221Z,17.83
2022-10-07T14:18:12.269Z,17.75
2022-10-07T14:23:23.479Z,18.10
2022-10-07T14:28:33.338Z,17.79
2022-10-07T14:34:00.840Z,18.06
2022-10-07T14:39:25.268Z,17.67
2022-10-07T14:44:29.993Z,17.45
2022-10-07T14:49:32.851Z,17.35
2022-10-07T14:54:35.896Z,16.97
2022-10-07T14:59:40.183Z,16.78
2022-10-07T15:04:47.006Z,16.77
2022-10-07T15:09:49.861Z,16.53
2022-10-07T15:14:54.933Z,16.37
2022-10-07T15:19:58.293Z,16.47
2022-10-07T15:25:03.319Z,16.34
2022-10-07T15:30:09.027Z,16.40
2022-10-07T15:35:12.328Z,16.55
2022-10-07T15:40:15.567Z,16.57
2022-10-07T15:45:19.855Z,16.78
2022-10-07T15:50:22.702Z,16.72
2022-10-07T15:55:25.457Z,16.51
2022-10-07T16:00:29.549Z,16.64
2022-10-07T16:05:32.480Z,16.47
2022-10-07T16:10:38.306Z,16.33
2022-10-07T16:15:42.618Z,16.56
2022-10-07T16:20:45.650Z,16.30
2022-10-07T16:25:49.304Z,16.25
2022-10-07T16:30:53.547Z,16.32
2022-10-07T16:35:56.412Z,16.30
2022-10-07T16:40:59.156Z,16.31
2022-10-07T16:46:04.219Z,16.28
2022-10-07T16:51:10.072Z,16.22
2022-10-07T16:56:13.823Z,16.29
2022-10-07T17:01:18.479Z,16.13
2022-10-07T17:06:24.519Z,16.15
2022-10-07T17:11:30.487Z,16.10
2022-10-07T17:16:37.681Z,16.03
2022-10-07T17:21:42.217Z,15.87
2022-10-07T17:26:45.896Z,15.82
2022-10-07T17:31:51.160Z,15.93
2022-10-07T17:36:54.093Z,15.91
2022-10-07T17:41:57.341Z,15.86
2022-10-07T17:47:03.771Z,15.79
2022-10-07T17:52:06.849Z,15.81
2022-10-07T17:57:10.195Z,15.78
2022-10-07T18:02:14.432Z,15.72
2022-10-07T18:07:17.617Z,15.66
2022-10-07T18:12:39.426Z,15.70
2022-10-07T18:17:44.507Z,15.57
2022-10-07T18:22:47.830Z,15.70
2022-10-07T18:27:51.362Z,15.53
2022-10-07T18:32:55.629Z,15.61
2022-10-07T18:37:58.501Z,15.57
2022-10-07T18:43:01.383Z,15.26
2022-10-07T18:48:05.738Z,15.10
2022-10-07T18:53:08.749Z,14.94
2022-10-07T18:58:11.776Z,15.10
2022-10-07T19:03:16.050Z,14.94
2022-10-07T19:08:19.496Z,14.92
2022-10-07T19:13:39.643Z,14.92
2022-10-07T19:18:44.756Z,14.85
2022-10-07T19:23:48.962Z,14.79
2022-10-07T19:28:53.153Z,14.77
2022-10-07T19:34:02.345Z,14.77
2022-10-07T19:39:07.368Z,14.78
2022-10-07T19:44:12.824Z,14.80
2022-10-07T19:49:17.259Z,14.81
2022-10-07T19:54:47.943Z,14.59
2022-10-07T19:59:59.914Z,14.39
2022-10-07T20:05:05.981Z,14.41
2022-10-07T20:10:11.268Z,14.24
2022-10-07T20:15:14.524Z,14.13
2022-10-07T20:20:18.961Z,14.01
2022-10-07T20:25:21.918Z,13.91
2022-10-07T20:30:24.843Z,13.84
2022-10-07T20:35:33.650Z,13.83
2022-10-07T20:41:05.749Z,13.84
2022-10-07T20:46:09.439Z,13.82
2022-10-07T20:51:13.808Z,13.95
2022-10-07T20:56:16.700Z,14.13
2022-10-07T21:01:19.733Z,14.03
2022-10-07T21:06:24.151Z,14.17
2022-10-07T21:11:28.057Z,13.95
2022-10-07T21:16:35.075Z,13.86
2022-10-07T21:21:39.644Z,13.80
2022-10-07T21:26:42.534Z,13.84
2022-10-07T21:31:45.616Z,13.80
2022-10-07T21:36:53.849Z,13.74
2022-10-07T21:41:58.196Z,13.77
2022-10-07T21:47:01.006Z,13.75
2022-10-07T21:52:05.177Z,13.65
2022-10-07T21:57:08.721Z,13.69
2022-10-07T22:02:11.541Z,13.61
2022-10-07T22:07:32.971Z,13.60
2022-10-07T22:12:35.781Z,13.46
2022-10-07T22:17:38.563Z,13.44
2022-10-07T22:22:42.713Z,13.27
2022-10-07T22:27:45.444Z,13.18
2022-10-07T22:32:48.726Z,13.07
2022-10-07T22:37:53.077Z,13.03
2022-10-07T22:42:56.045Z,12.97
2022-10-07T22:47:58.807Z,12.88
2022-10-07T22:53:03.194Z,12.89
2022-10-07T22:58:06.093Z,12.81
2022-10-07T23:03:10.845Z,12.71
2022-10-07T23:08:15.057Z,12.74
2022-10-07T23:13:17.812Z,12.74
2022-10-07T23:18:20.531Z,12.67
2022-10-07T23:23:25.298Z,12.55
2022-10-07T23:28:28.200Z,12.56
2022-10-07T23:33:31.897Z,12.48
2022-10-07T23:38:37.236Z,12.37
2022-10-07T23:43:40.045Z,12.38
2022-10-07T23:48:43.563Z,12.35
2022-10-07T23:53:48.332Z,12.28
2022-10-07T23:58:51.197Z,12.32
